Portada
METAR-TAF:

METAR-TAF

Aeroports :

Providencia Island, Colòmbia

latitud: 13-22N, longitud: 081-21W, altitud: 6 m

Observació

L'informe es va fer fa 9 hores i 1 minuts, a les 00:00 UTC
Vent 8 kt amb direcció variable
Temperatura 28°C
Humitat 84%
Pressió 1012 hPa
Visibilitat 10 km o més
Escasses núvols a una alçada de 1700 ft
Cel cobert a una alçada de 20000 ft

METAR: SKPV 170000Z VRB08KT 9999 FEW017 OVC200 28/25 A2989

Hora: 04:01 (09:01 UTC)


TAF: manca

Observacions i pronòstics meteorològics de més de 4000 aeroports (METAR i TAF).

Les estacions disponibles són els punts grocs i vermells al mapa.

Posi el ratolí al punt desitjat per veure el nom de l'estació.

Feu clic per veure les observacions i els pronòstics meteorològics.

Per canviar el mapa: feu clic els botons verds amb una creu de color negre per apropar; al botó verd amb un guió per allunyar la imatge; o en les fletxes verdes per a mapes adjacents.


METAR-TAF: